METAR AND TAF INFORMATION
METAR FOR EFKI
ADDS - METARS form results

(0110 UTC 01 June 2020)
Data provider http://aviationweather.gov/metar/data/
 
METAR text: EFKI 010050Z AUTO 02004KT 9999 FEW044 10/08 Q1027
Conditions at: EFKI (KAJAANI , FI) observed 0050 UTC 01 June 2020
Temperature: 10.0°C (50°F)
Dewpoint: 8.0°C (46°F) [RH = 87%]
Pressure (altimeter): 30.32 inches Hg (1027.0 mb)
Winds: from the NNE (20 degrees) at 5 MPH (4 knots; 2.1 m/s)
Visibility: 6 or more miles (10+ km)
Ceiling: at least 12,000 feet AGL
Clouds: few clouds at 4400 feet AGL
Weather: no significant weather observed at this time

METAR text: EFKI 010020Z AUTO 02004KT 340V050 9999 FEW045 11/07 Q1027
Conditions at: EFKI (KAJAANI , FI) observed 0020 UTC 01 June 2020
Temperature: 11.0°C (52°F)
Dewpoint: 7.0°C (45°F) [RH = 76%]
Pressure (altimeter): 30.32 inches Hg (1027.0 mb)
Winds: from the NNE (20 degrees) at 5 MPH (4 knots; 2.1 m/s)
Visibility: 6 or more miles (10+ km)
Ceiling: at least 12,000 feet AGL
Clouds: few clouds at 4500 feet AGL
Weather: no significant weather observed at this time

 AIRPORT MAP

 RUNWAY INFORMATION
Runway 07 Runway length 8199 ft Runway width 157 ft
Runway elevation 430 ft Runway displaced threshold 0 ft Runway heading 80
Runway 25 Runway length 8199 ft Runway width 157 ft
Runway elevation 483 ft Runway displaced threshold 0 ft Runway heading 260

 AIRPORT FREQUENCIES
Type AFIS Name AFIS Frequency 118.1 MHZ
Type ATIS Name ATIS Frequency 114.9 MHZ

 AIRPORT NEAR NAVIGATION AIDS
Type NDB Name Kajaani Frequency 337 KHZ
Type VOR-DME Name Kainuu Frequency 114900 KHZ



Powered by Virtual Airlines Manager [v2.6.2]